Relevés horaires Matro (Suisse)


Relevés horaires à Matro - Vendredi 08 Juill. 2022
Heure UTC1 Température [°C] Vent [km/h] Hum. [%] Pres.4 [hPa] Visi. [Km] Nébu. [octa] Préc.5 [mm] Cond.
2m. Res. Ros. Dir.2 Vit. Moy. Raf.3
23:00 9.4 6.1 -3.9 NO 25.9 -- 42.6 39 850(0.0/3h) -- -- -- --
22:00 9.5 6.2 -3.0 NO 25.9 -- 53.7 41 850(0.5/3h) -- -- -- --
21:00 9.9 6 -3.2 NNO 37.0 -- 53.7 40 850(0.4/3h) -- -- -- --
20:00 10.1 6.5 -2.0 NNO 33.3 -- 48.2 43 850(0.4/3h) -- -- -- --
19:00 11.1 7.6 -4.4 NNO 37.0 -- 53.7 33 850(0.3/3h) -- -- -- --
18:00 11.6 8.5 -3.3 NNO 33.3 -- 51.9 35 850(0.3/3h) -- -- -- --
17:00 11.7 8.9 -2.5 NNO 27.8 -- 46.3 37 850(0.3/3h) -- -- -- --
16:00 12.1 9.3 -2.2 NNO 29.6 -- 48.2 37 850(0.3/3h) -- -- -- --
15:00 12.3 10.1 -1.9 NNO 22.2 -- 51.9 37 850(0.6/3h) -- -- -- --
14:00 12.1 9.2 -4.9 NNO 31.5 -- 51.9 30 850(0.8/3h) -- -- -- --
13:00 11.6 8.3 -3.2 NNO 37.0 -- 51.9 35 850(1.2/3h) -- -- -- --
12:00 10.8 7.4 -0.7 NNO 33.3 -- 64.8 45 850(1.1/3h) -- -- -- --
11:00 10.3 6.5 -2.6 NO 37.0 -- 63.0 40 850(1.1/3h) -- -- -- --
10:00 9.8 5.9 -4.4 NO 37.0 -- 64.8 36 850(0.7/3h) -- -- -- --
09:00 9.0 5 -2.2 NNO 33.3 -- 63.0 45 850(0.8/3h) -- -- -- --
08:00 7.4 2.3 -2.2 NNO 42.6 -- 63.0 50 850(0.5/3h) -- -- -- --
07:00 7.2 2.3 -0.3 NNO 38.9 -- 61.1 59 850(0.6/3h) -- -- -- --
06:00 6.3 1.2 -0.1 NNO 37.0 -- 63.0 64 850(0.9/3h) -- -- -- --
05:00 6.0 0.6 -0.3 NNO 40.7 -- 63.0 64 850(0.7/3h) -- -- -- --
04:00 5.8 0.4 -0.1 NNO 38.9 -- 59.3 66 850(0.1/3h) -- -- -- --
03:00 6.4 1 -0.2 NNO 42.6 -- 63.0 63 850(-0.8/3h) -- -- -- --
02:00 6.8 1.4 0.7 NNO 44.4 -- 63.0 65 850(-0.9/3h) -- -- -- --
01:00 7.0 1.6 0.7 NNO 46.3 -- 61.1 64 850(-0.5/3h) -- -- -- --
00:00 7.4 2.2 0.2 NNO 44.4 -- 81.5 60 850(0.0/3h) -- -- -- --

1 Coordinated Universal Time. Actuellement il est 22:00 locale et 20:00 UTC.

2 Le vent souffle depuis la direction indiquée vers la direction oposée.

3 Les rafales max. sont disponible 40 min après l'heure du relevé.

4 Pour les stations d'altitude (plus de 600m) le géopotentiel du niveau le plus proche de la pression obligatoire est indiqué.

5 Les stations disposant d'un diffuseur peuvent indiquer "trace". Cela signifie que des précipitations ont touchés le sol mais que la quantité est inférieure à 0.1 mm.

Copyright

Les données affichées sur cette page sont la propriété exclusive de Météo Suisse.

Récapitulatif de la journée
Température [°C] Vent [km/h] Ensoleillement4 [h] Precipitations totale5 [mm] Pression [Hpa]
Min1 Max.2 Moy.3 Max. Min Max.
5.8 12.3 0 81.5 14 h 36 min 0 850.0 850.0

1 Température minimale relevée entre 18:00 UTC la veille et 18:00 UTC le jour donné.

2 Température maximale relevée entre 06:00 UTC le jour donné et 06:00 UTC le lendemain.

3 Vent moyen de la journée basé sur les relevés horaires.

4 Ensoleillement en heures relevé entre 06:00 UTC la veille et 06:00 UTC le jour donné.

5 Précipitations totales tombées entre 06:00 UTC la jour donné et 06:00 UTC le lendemain.

Graphiques horaires